Time;durP1;ratioP1;P1;durP2;ratioP2;P2;SDS_P1;SDS_P2;PMS_P1;PMS_P2;Temp;Humidity;BMP_temperature;BMP_pressure;BME280_temperature;BME280_humidity;BME280_pressure;Samples;Min_cycle;Max_cycle;Signal;HPM_P1;HPM_P2
2022/04/23 00:01:13;;;;;;;13.25;6.15;;;;;;;10.96;100.00;97855.63;5094454;28;20110;-93
2022/04/23 00:03:38;;;;;;;10.82;5.75;;;;;;;11.03;100.00;97865.06;5094462;28;20032;-94
2022/04/23 00:06:04;;;;;;;14.38;5.70;;;;;;;10.97;100.00;97859.16;5094018;28;20077;-93
2022/04/23 00:08:32;;;;;;;12.65;5.70;;;;;;;10.92;100.00;97839.88;5094119;28;20052;-94
2022/04/23 00:10:59;;;;;;;13.85;6.45;;;;;;;10.89;100.00;97846.19;5093920;28;20064;-94
2022/04/23 00:13:28;;;;;;;10.60;6.22;;;;;;;10.83;100.00;97849.97;5093960;28;20036;-93
2022/04/23 00:15:54;;;;;;;13.23;6.50;;;;;;;10.72;100.00;97846.06;5093717;28;20493;-94
2022/04/23 00:18:19;;;;;;;11.82;6.30;;;;;;;10.64;100.00;97857.84;5093722;28;20047;-93
2022/04/23 00:20:50;;;;;;;10.30;6.15;;;;;;;10.51;100.00;97855.78;5092648;28;20032;-93
2022/04/23 00:23:16;;;;;;;12.52;6.22;;;;;;;10.36;100.00;97854.63;5094146;28;20044;-93
2022/04/23 00:26:03;;;;;;;10.77;6.03;;;;;;;10.42;100.00;97871.16;5094535;28;20040;-93
2022/04/23 00:28:45;;;;;;;12.10;5.85;;;;;;;10.24;100.00;97845.34;5093946;28;20092;-92
2022/04/23 00:31:41;;;;;;;11.00;5.70;;;;;;;10.34;100.00;97857.31;5068512;28;20044;-93
2022/04/23 00:34:08;;;;;;;12.25;6.03;;;;;;;10.56;100.00;97886.56;5094376;28;20046;-92
2022/04/23 00:36:37;;;;;;;11.82;6.15;;;;;;;10.48;100.00;97868.28;5093752;28;20048;-91
2022/04/23 00:39:05;;;;;;;14.98;6.38;;;;;;;10.47;100.00;97850.59;5093869;28;20148;-93
2022/04/23 00:41:51;;;;;;;12.57;5.90;;;;;;;10.51;100.00;97846.00;5093860;28;20501;-93
2022/04/23 00:44:19;;;;;;;13.55;5.85;;;;;;;10.69;100.00;97870.94;5087927;28;20040;-93
2022/04/23 00:47:00;;;;;;;11.40;6.10;;;;;;;10.72;100.00;97870.84;5093493;28;20067;-91
2022/04/23 00:49:33;;;;;;;11.32;6.30;;;;;;;10.77;100.00;97863.53;5088217;28;20067;-94
2022/04/23 00:51:59;;;;;;;12.63;6.07;;;;;;;10.77;100.00;97865.31;5093559;28;20066;-91
2022/04/23 00:54:59;;;;;;;;;;;;;;;;;;;;;
2022/04/23 00:57:37;;;;;;;12.75;6.72;;;;;;;10.79;100.00;97872.31;5090881;28;20101;-92
2022/04/23 01:00:08;;;;;;;14.32;6.82;;;;;;;10.86;100.00;97875.56;5092027;28;20032;-94
2022/04/23 01:02:37;;;;;;;11.63;6.15;;;;;;;10.87;100.00;97861.34;5093485;28;20401;-92
2022/04/23 01:05:08;;;;;;;11.45;6.07;;;;;;;10.78;100.00;97859.06;5093615;28;20028;-93
2022/04/23 01:07:38;;;;;;;12.90;6.45;;;;;;;10.93;100.00;97889.47;5093386;28;20059;-92
2022/04/23 01:10:06;;;;;;;17.77;7.38;;;;;;;10.92;100.00;97888.59;5093443;28;20040;-91
2022/04/23 01:12:46;;;;;;;15.80;6.90;;;;;;;10.97;100.00;97899.03;5093061;28;20054;-92
2022/04/23 01:15:14;;;;;;;15.30;6.95;;;;;;;10.81;100.00;97881.09;5087805;28;20079;-91
2022/04/23 01:17:58;;;;;;;17.35;7.10;;;;;;;10.87;100.00;97895.94;5092951;28;20481;-91
2022/04/23 01:20:25;;;;;;;16.20;7.35;;;;;;;10.92;100.00;97895.72;5093170;28;20043;-92
2022/04/23 01:22:51;;;;;;;12.95;6.25;;;;;;;10.80;100.00;97884.69;5092934;28;20035;-92
2022/04/23 01:25:19;;;;;;;17.65;6.53;;;;;;;10.98;100.00;97903.44;5093305;28;20447;-91
2022/04/23 01:27:48;;;;;;;15.82;6.78;;;;;;;10.95;100.00;97909.78;5093966;28;20036;-93
2022/04/23 01:30:14;;;;;;;15.47;7.27;;;;;;;10.84;100.00;97904.03;5097171;28;20039;-91
2022/04/23 01:32:52;;;;;;;14.15;5.88;;;;;;;10.78;100.00;97897.19;5096859;28;20044;-89
2022/04/23 01:35:36;;;;;;;15.73;6.90;;;;;;;10.87;100.00;97925.19;5088772;28;20051;-92
2022/04/23 01:38:02;;;;;;;14.35;5.97;;;;;;;10.83;100.00;97916.47;5095892;28;20485;-93
2022/04/23 01:40:46;;;;;;;16.73;6.82;;;;;;;10.83;100.00;97937.72;5096181;28;20051;-92
2022/04/23 01:43:13;;;;;;;14.32;6.15;;;;;;;10.79;100.00;97930.81;5097009;28;20044;-92
2022/04/23 01:45:39;;;;;;;15.15;6.28;;;;;;;10.78;100.00;97933.53;5096849;28;20086;-92
2022/04/23 01:48:07;;;;;;;13.95;5.93;;;;;;;10.76;100.00;97933.59;5092944;28;20039;-93
2022/04/23 01:50:34;;;;;;;11.48;5.47;;;;;;;10.72;100.00;97932.00;5092639;28;20397;-91
2022/04/23 01:53:08;;;;;;;14.75;5.93;;;;;;;10.85;100.00;97959.81;5095532;28;20040;-91
2022/04/23 01:55:37;;;;;;;12.80;5.47;;;;;;;10.76;100.00;97944.25;5095806;28;20481;-92
2022/04/23 01:58:02;;;;;;;12.45;5.53;;;;;;;10.74;100.00;97942.59;5096307;28;20126;-92
2022/04/23 02:00:28;;;;;;;10.88;5.63;;;;;;;10.79;100.00;97961.88;5096279;28;20032;-90
2022/04/23 02:02:56;;;;;;;10.43;5.85;;;;;;;10.59;100.00;97936.94;5096515;28;20067;-91
2022/04/23 02:05:24;;;;;;;18.75;6.22;;;;;;;10.67;100.00;97947.28;5096430;28;20036;-92
2022/04/23 02:07:52;;;;;;;12.85;6.10;;;;;;;10.59;100.00;97947.59;5095939;28;20043;-92
2022/04/23 02:10:32;;;;;;;;;;;;;;;;;;;;;
2022/04/23 02:12:58;;;;;;;11.98;5.60;;;;;;;10.57;100.00;97959.22;5094986;28;20044;-89
2022/04/23 02:15:24;;;;;;;14.05;6.78;;;;;;;10.33;100.00;97935.34;5096112;28;20043;-92
2022/04/23 02:17:50;;;;;;;10.82;5.85;;;;;;;10.28;100.00;97934.63;5095515;28;20040;-93
2022/04/23 02:20:19;;;;;;;17.83;6.20;;;;;;;10.43;100.00;97970.38;5094220;28;20039;-92
2022/04/23 02:22:50;;;;;;;12.82;5.85;;;;;;;10.21;100.00;97944.63;5095718;28;20043;-92
2022/04/23 02:25:20;;;;;;;14.52;6.25;;;;;;;10.10;100.00;97930.88;5095868;28;20044;-91
2022/04/23 02:27:50;;;;;;;9.73;6.32;;;;;;;10.08;100.00;97930.94;5095739;28;20111;-92
2022/04/23 02:30:19;;;;;;;13.07;6.43;;;;;;;10.11;100.00;97937.94;5095833;28;20108;-91
2022/04/23 02:32:48;;;;;;;15.75;6.60;;;;;;;10.07;100.00;97942.50;5095842;28;20123;-91
2022/04/23 02:35:26;;;;;;;;;;;;;;;;;;;;;
2022/04/23 02:38:19;;;;;;;12.77;5.80;;;;;;;10.01;100.00;97923.25;5093731;28;20490;-92
2022/04/23 02:40:54;;;;;;;17.77;6.47;;;;;;;10.17;100.00;97947.44;5094948;28;20093;-91
2022/04/23 02:43:22;;;;;;;14.02;6.40;;;;;;;10.06;100.00;97929.25;5095574;28;20127;-91
2022/04/23 02:45:52;;;;;;;13.65;6.10;;;;;;;9.99;100.00;97931.28;5095127;28;20076;-93
2022/04/23 02:48:28;;;;;;;17.15;6.60;;;;;;;9.97;100.00;97930.47;5095467;28;20402;-92
2022/04/23 02:50:54;;;;;;;19.38;6.72;;;;;;;10.14;100.00;97960.84;5094496;28;20579;-92
2022/04/23 02:53:22;;;;;;;17.30;6.97;;;;;;;10.07;100.00;97944.28;5095303;28;20040;-92
2022/04/23 02:55:49;;;;;;;18.08;7.95;;;;;;;10.14;100.00;97955.53;5095289;28;20074;-93
2022/04/23 02:58:18;;;;;;;12.65;6.72;;;;;;;10.23;100.00;97963.16;5095191;28;20044;-91
2022/04/23 03:00:46;;;;;;;12.07;6.50;;;;;;;10.24;100.00;97963.09;5095038;28;20044;-91
2022/04/23 03:03:12;;;;;;;13.95;7.43;;;;;;;10.27;100.00;97972.75;5094534;28;20048;-91
2022/04/23 03:05:42;;;;;;;13.38;5.93;;;;;;;10.25;100.00;97978.09;5095307;28;20044;-91
2022/04/23 03:08:15;;;;;;;14.98;6.65;;;;;;;10.13;100.00;97959.09;5095131;28;20056;-91
2022/04/23 03:10:44;;;;;;;10.90;6.32;;;;;;;10.11;100.00;97953.88;5092502;28;20436;-92
2022/04/23 03:13:10;;;;;;;17.15;6.20;;;;;;;10.08;100.00;97954.88;5095012;28;20036;-90
2022/04/23 03:15:39;;;;;;;12.93;6.00;;;;;;;10.08;100.00;97965.50;5095286;28;20727;-92
2022/04/23 03:18:08;;;;;;;12.63;6.40;;;;;;;10.08;100.00;97975.22;5095065;28;20115;-92
2022/04/23 03:20:36;;;;;;;12.48;5.95;;;;;;;9.93;100.00;97958.09;5094808;28;20047;-92
2022/04/23 03:23:27;;;;;;;12.60;6.15;;;;;;;9.99;100.00;97971.13;5091208;28;20047;-93
2022/04/23 03:25:53;;;;;;;12.63;6.07;;;;;;;9.95;100.00;97952.72;5094884;28;20040;-92
2022/04/23 03:28:28;;;;;;;10.85;5.90;;;;;;;9.87;100.00;97956.53;5094912;28;20032;-92
2022/04/23 03:31:03;;;;;;;15.82;5.93;;;;;;;9.83;100.00;97959.34;5093809;28;20064;-92
2022/04/23 03:33:39;;;;;;;;;;;;;;;;;;;;;
2022/04/23 03:36:35;;;;;;;;;;;;;;;;;;;;;
2022/04/23 03:39:29;;;;;;;;;;;;;;;;;;;;;
2022/04/23 03:41:58;;;;;;;8.25;5.65;;;;;;;9.93;100.00;97971.38;5094397;28;20504;-92
2022/04/23 03:44:44;;;;;;;12.27;5.70;;;;;;;10.12;100.00;97986.59;5086162;28;20032;-91
2022/04/23 03:47:11;;;;;;;12.63;5.70;;;;;;;10.04;100.00;97989.53;5094257;28;20040;-90
2022/04/23 03:49:37;;;;;;;11.77;5.28;;;;;;;9.94;100.00;97975.75;5094233;28;20036;-92
2022/04/23 03:52:03;;;;;;;12.20;5.80;;;;;;;10.01;100.00;97989.66;5093859;28;20044;-92
2022/04/23 03:54:29;;;;;;;9.18;5.60;;;;;;;10.10;100.00;98007.06;5094055;28;20040;-91
2022/04/23 03:56:55;;;;;;;16.67;6.07;;;;;;;10.12;100.00;98010.53;5094480;28;20117;-90
2022/04/23 03:59:21;;;;;;;11.45;5.78;;;;;;;10.17;100.00;98016.50;5094344;28;20060;-90
2022/04/23 04:01:48;;;;;;;10.48;5.32;;;;;;;10.24;100.00;98018.91;5094228;28;20497;-89
2022/04/23 04:04:15;;;;;;;10.60;5.93;;;;;;;10.19;100.00;98004.03;5094113;28;20060;-91
2022/04/23 04:06:41;;;;;;;13.38;5.85;;;;;;;10.18;100.00;98004.97;5094201;28;20035;-91
2022/04/23 04:09:07;;;;;;;17.33;6.38;;;;;;;10.22;100.00;98014.56;5094548;28;20036;-93
2022/04/23 04:14:33;;;;;;;14.32;6.35;;;;;;;10.44;100.00;98022.63;5133540;27;20853;-92
2022/04/23 04:17:00;;;;;;;11.85;6.38;;;;;;;10.36;100.00;98008.75;5102237;28;20048;-92
2022/04/23 04:19:26;;;;;;;17.75;6.97;;;;;;;10.37;100.00;98005.19;5100614;28;20056;-92
2022/04/23 04:21:52;;;;;;;18.52;7.03;;;;;;;10.33;100.00;98015.06;5097844;28;20041;-93
2022/04/23 04:24:18;;;;;;;16.52;7.45;;;;;;;10.26;100.00;98010.88;5102630;28;20045;-93
2022/04/23 04:26:47;;;;;;;20.67;8.20;;;;;;;10.27;100.00;98020.56;5108465;28;20094;-93
2022/04/23 04:29:13;;;;;;;14.77;7.68;;;;;;;10.22;100.00;98015.44;5103468;28;20497;-94
2022/04/23 04:34:39;;;;;;;25.80;8.02;;;;;;;10.19;100.00;98014.66;5148256;27;20151;-92
2022/04/23 04:37:06;;;;;;;18.80;7.70;;;;;;;10.19;100.00;98022.63;5131893;27;20425;-93
2022/04/23 04:39:32;;;;;;;18.10;7.80;;;;;;;10.06;100.00;98011.59;5131761;27;20046;-93
2022/04/23 04:41:58;;;;;;;18.00;7.55;;;;;;;10.04;100.00;98013.44;5132346;27;20070;-92
2022/04/23 04:44:24;;;;;;;14.30;7.82;;;;;;;10.07;100.00;98032.81;5131737;27;20059;-91
2022/04/23 04:46:50;;;;;;;15.63;7.28;;;;;;;10.11;100.00;98030.06;5131605;27;20046;-94
2022/04/23 04:49:16;;;;;;;18.65;8.25;;;;;;;10.10;100.00;98025.66;5132112;27;20039;-91
2022/04/23 04:51:43;;;;;;;18.83;7.53;;;;;;;10.06;100.00;98031.09;5132092;27;20122;-92
2022/04/23 04:54:09;;;;;;;28.30;9.00;;;;;;;10.11;100.00;98040.69;5131467;27;20040;-90
2022/04/23 04:56:35;;;;;;;31.05;8.55;;;;;;;10.03;100.00;98017.03;5131730;27;20104;-91
2022/04/23 04:59:01;;;;;;;18.80;8.73;;;;;;;10.05;100.00;98013.41;5132130;27;20915;-91
2022/04/23 05:01:28;;;;;;;21.67;8.20;;;;;;;10.14;100.00;98027.28;5131531;27;20084;-91
2022/04/23 05:03:54;;;;;;;20.63;8.30;;;;;;;10.19;100.00;98031.50;5131951;27;20171;-91
2022/04/23 05:06:20;;;;;;;15.77;8.35;;;;;;;10.23;100.00;98037.53;5131380;27;20484;-91
2022/04/23 05:08:47;;;;;;;21.08;8.30;;;;;;;10.31;100.00;98029.34;5131042;27;20035;-91
2022/04/23 05:11:13;;;;;;;19.08;7.65;;;;;;;10.45;100.00;98043.84;5131534;27;20059;-91
2022/04/23 05:13:39;;;;;;;21.20;7.55;;;;;;;10.54;100.00;98042.63;5131095;27;20073;-90
2022/04/23 05:16:06;;;;;;;13.65;6.72;;;;;;;10.59;100.00;98016.72;5131137;27;20043;-94
2022/04/23 05:18:31;;;;;;;13.13;6.72;;;;;;;10.98;100.00;98034.66;5131463;27;20074;-91
2022/04/23 05:20:57;;;;;;;12.77;6.80;;;;;;;11.17;100.00;98031.22;5131128;27;20063;-94
2022/04/23 05:23:23;;;;;;;15.43;6.60;;;;;;;11.25;100.00;98019.34;5131051;27;20499;-91
2022/04/23 05:25:50;;;;;;;17.27;6.80;;;;;;;11.40;99.04;97987.69;5131378;27;20144;-92
2022/04/23 05:28:16;;;;;;;15.80;6.93;;;;;;;11.75;97.33;98011.91;5119883;28;20060;-93
2022/04/23 05:30:43;;;;;;;14.50;7.07;;;;;;;11.94;94.63;98025.34;5131493;27;20047;-91
2022/04/23 05:33:09;;;;;;;14.80;6.85;;;;;;;12.05;94.04;98009.72;5129806;28;20039;-91
2022/04/23 05:35:35;;;;;;;16.10;6.25;;;;;;;12.08;92.60;98029.13;5130724;27;20104;-90
2022/04/23 05:38:01;;;;;;;15.55;6.80;;;;;;;11.86;93.54;98023.84;5131245;27;20043;-93
2022/04/23 05:40:26;;;;;;;14.43;6.60;;;;;;;11.67;96.00;98022.94;5130960;27;20067;-92
2022/04/23 05:42:57;;;;;;;15.10;7.30;;;;;;;11.49;96.72;98038.75;5131039;27;20438;-91
2022/04/23 05:45:23;;;;;;;22.52;9.65;;;;;;;11.35;97.81;98042.94;5120340;27;20039;-93
2022/04/23 05:47:49;;;;;;;18.80;7.18;;;;;;;11.34;98.64;98065.13;5117408;28;20043;-91
2022/04/23 05:50:15;;;;;;;19.67;6.88;;;;;;;11.13;98.07;98041.16;5117112;28;20122;-92
2022/04/23 05:52:44;;;;;;;18.08;7.22;;;;;;;11.24;99.33;98081.50;5116393;28;20521;-92
2022/04/23 05:55:13;;;;;;;15.27;7.80;;;;;;;11.08;100.00;98069.72;5115227;28;20493;-93
2022/04/23 05:57:39;;;;;;;24.05;10.30;;;;;;;11.19;100.00;98078.16;5118052;28;20036;-91
2022/04/23 06:00:09;;;;;;;32.83;17.27;;;;;;;11.11;100.00;98064.31;5117792;28;20043;-91
2022/04/23 06:02:35;;;;;;;52.58;24.65;;;;;;;11.12;100.00;98076.66;5118318;28;20039;-92
2022/04/23 06:05:01;;;;;;;65.50;28.65;;;;;;;11.09;100.00;98077.66;5117807;28;20043;-94
2022/04/23 06:07:26;;;;;;;48.15;22.85;;;;;;;11.23;100.00;98078.88;5117885;28;20058;-92
2022/04/23 06:09:52;;;;;;;35.97;18.83;;;;;;;11.41;100.00;98077.28;5117245;28;20036;-91
2022/04/23 06:12:18;;;;;;;39.38;19.48;;;;;;;11.61;99.25;98076.44;5117106;28;20046;-92
2022/04/23 06:14:44;;;;;;;39.00;18.40;;;;;;;11.71;98.05;98064.47;5117778;28;20035;-92
2022/04/23 06:17:12;;;;;;;42.15;18.38;;;;;;;11.87;98.34;98062.00;5118051;27;20175;-92
2022/04/23 06:19:39;;;;;;;23.17;12.77;;;;;;;12.20;95.96;98074.81;5117290;28;20374;-91
2022/04/23 06:22:05;;;;;;;22.52;11.02;;;;;;;12.33;94.32;98075.97;5117595;28;20449;-91
2022/04/23 06:24:31;;;;;;;16.35;8.73;;;;;;;12.44;94.57;98083.50;5117144;28;20028;-92
2022/04/23 06:26:57;;;;;;;20.15;7.78;;;;;;;12.62;93.67;98076.44;5116891;28;20073;-91
2022/04/23 06:29:23;;;;;;;18.25;7.90;;;;;;;12.82;91.89;98088.88;5117628;28;20044;-91
2022/04/23 06:31:49;;;;;;;17.60;7.50;;;;;;;12.96;90.54;98081.06;5117491;28;20055;-92
2022/04/23 06:34:16;;;;;;;16.08;7.47;;;;;;;13.09;89.78;98074.19;5116921;28;20217;-91
2022/04/23 06:36:42;;;;;;;18.13;7.93;;;;;;;13.33;88.52;98081.97;5117298;28;20150;-91
2022/04/23 06:39:08;;;;;;;20.80;8.18;;;;;;;13.41;87.86;98078.94;5117391;28;20044;-93
2022/04/23 06:41:34;;;;;;;15.48;7.47;;;;;;;13.76;86.68;98086.03;5117995;27;20040;-90
2022/04/23 06:44:00;;;;;;;19.05;7.90;;;;;;;13.89;84.70;98083.59;5117290;28;20043;-93
2022/04/23 06:46:26;;;;;;;16.95;7.32;;;;;;;13.88;85.44;98081.88;5117598;28;20141;-92
2022/04/23 06:48:52;;;;;;;14.85;7.38;;;;;;;14.06;84.72;98071.16;5117077;28;20058;-91
2022/04/23 06:51:20;;;;;;;14.27;7.43;;;;;;;14.09;83.98;98081.69;5117011;28;20042;-90
2022/04/23 06:53:45;;;;;;;19.40;7.75;;;;;;;13.99;84.10;98100.03;5117170;28;20392;-92
2022/04/23 06:56:11;;;;;;;15.40;7.68;;;;;;;13.94;83.76;98104.72;5115870;28;20031;-92
2022/04/23 06:58:37;;;;;;;17.45;8.43;;;;;;;13.98;85.01;98111.66;5116773;28;20480;-92
2022/04/23 07:01:04;;;;;;;17.00;8.43;;;;;;;14.00;84.07;98099.06;5116959;28;20088;-93
2022/04/23 07:03:30;;;;;;;18.40;7.88;;;;;;;14.00;85.39;98100.91;5116236;28;20496;-90
2022/04/23 07:05:56;;;;;;;17.40;7.30;;;;;;;13.91;83.77;98099.56;5116736;28;20046;-92
2022/04/23 07:08:24;;;;;;;13.88;6.95;;;;;;;14.24;83.58;98107.63;5116676;28;20504;-91
2022/04/23 07:10:51;;;;;;;18.63;7.30;;;;;;;14.33;83.34;98101.81;5112707;28;20036;-91
2022/04/23 07:13:16;;;;;;;18.42;7.28;;;;;;;14.05;84.17;98101.50;5116584;28;20031;-92
2022/04/23 07:15:44;;;;;;;13.77;7.13;;;;;;;14.11;84.17;98103.88;5116150;28;20243;-92
2022/04/23 07:18:10;;;;;;;17.20;7.38;;;;;;;14.08;83.29;98090.69;5116301;28;20096;-93
2022/04/23 07:20:39;;;;;;;15.77;7.35;;;;;;;14.32;83.19;98080.50;5116329;28;20047;-92
2022/04/23 07:25:58;;;;;;;18.45;9.13;;;;;;;14.46;80.32;98109.16;5129414;27;20211;-94
2022/04/23 07:28:24;;;;;;;20.05;7.97;;;;;;;14.18;82.17;98094.56;5111329;28;20047;-94
2022/04/23 07:30:50;;;;;;;16.15;8.38;;;;;;;14.15;81.90;98089.41;5111682;28;20093;-93
2022/04/23 07:39:07;;;;;;;13.20;6.95;;;;;;;13.98;83.76;98099.16;5147925;27;20356;-92
2022/04/23 07:41:33;;;;;;;12.32;6.30;;;;;;;14.43;81.39;98096.81;5131306;27;20043;-92
2022/04/23 07:43:59;;;;;;;10.60;5.47;;;;;;;15.09;79.50;98105.75;5131621;27;20051;-93
2022/04/23 07:46:24;;;;;;;9.75;4.75;;;;;;;15.76;74.79;98087.66;5131881;27;20036;-94
2022/04/23 07:48:50;;;;;;;7.72;4.82;;;;;;;16.17;71.60;98077.13;5132694;27;20043;-92
2022/04/23 07:51:16;;;;;;;9.95;4.28;;;;;;;16.46;71.37;98084.34;5132341;27;20070;-91
2022/04/23 07:53:42;;;;;;;10.45;5.18;;;;;;;16.96;68.12;98086.56;5133030;27;20039;-94
2022/04/23 07:56:09;;;;;;;6.93;4.00;;;;;;;17.27;65.81;98087.25;5132252;27;20127;-92
2022/04/23 07:58:35;;;;;;;8.65;4.38;;;;;;;17.33;66.09;98080.66;5131402;27;20059;-94
2022/04/23 08:01:01;;;;;;;9.80;4.40;;;;;;;17.50;63.75;98092.94;5131318;27;20115;-93
2022/04/23 08:03:28;;;;;;;8.55;3.65;;;;;;;17.32;63.54;98082.44;5131820;27;20051;-93
2022/04/23 08:05:54;;;;;;;9.43;4.38;;;;;;;17.59;62.66;98085.16;5131409;27;20058;-93
2022/04/23 08:08:21;;;;;;;7.45;3.97;;;;;;;17.50;63.57;98084.88;5131990;27;20081;-89
2022/04/23 08:10:47;;;;;;;8.60;4.20;;;;;;;16.99;65.74;98088.19;5131387;27;20035;-94
2022/04/23 08:13:14;;;;;;;6.13;3.83;;;;;;;17.51;62.97;98089.31;5134609;27;20123;-93
2022/04/23 08:15:40;;;;;;;6.97;3.92;;;;;;;17.04;63.43;98078.88;5131673;27;20096;-93
2022/04/23 08:18:06;;;;;;;8.60;3.85;;;;;;;17.00;65.01;98089.91;5131651;27;20037;-94
2022/04/23 08:20:32;;;;;;;6.75;3.45;;;;;;;16.78;65.57;98090.38;5131661;27;20109;-93
2022/04/23 08:22:58;;;;;;;8.68;3.67;;;;;;;16.46;65.72;98089.69;5131738;27;20055;-94
2022/04/23 08:25:24;;;;;;;6.30;3.60;;;;;;;16.26;67.48;98099.84;5127901;27;20039;-94
2022/04/23 08:27:52;;;;;;;7.40;4.28;;;;;;;16.31;68.89;98096.88;5131136;27;20035;-94
2022/04/23 08:33:13;;;;;;;6.03;3.60;;;;;;;16.75;65.45;98078.00;5141521;27;20219;-94
2022/04/23 08:35:40;;;;;;;4.80;3.55;;;;;;;17.37;63.96;98093.78;5132105;27;20408;-93
2022/04/23 08:38:07;;;;;;;6.13;3.25;;;;;;;17.70;62.62;98072.81;5131926;27;20043;-94
2022/04/23 08:40:36;;;;;;;7.63;4.03;;;;;;;17.56;61.32;98073.72;5131107;27;20170;-89
2022/04/23 08:43:02;;;;;;;6.18;3.47;;;;;;;17.84;61.91;98084.38;5129832;28;20501;-92
2022/04/23 08:45:30;;;;;;;7.18;2.83;;;;;;;17.89;60.62;98085.91;5132712;27;20093;-91
2022/04/23 08:47:59;;;;;;;7.05;3.55;;;;;;;17.84;61.54;98070.94;5133265;27;20562;-92
2022/04/23 08:50:28;;;;;;;8.82;3.40;;;;;;;18.08;60.75;98099.81;5132786;27;20043;-93
2022/04/23 08:52:54;;;;;;;;;;;;;;;17.85;60.38;98101.41;5133612;27;20037;-93
2022/04/23 08:55:20;;;;;;;7.25;3.60;;;;;;;17.92;60.78;98073.13;5132884;27;19926;-92
2022/04/23 08:57:46;;;;;;;4.70;2.75;;;;;;;18.26;59.20;98114.72;5133014;27;20039;-94
2022/04/23 09:00:14;;;;;;;5.25;2.92;;;;;;;18.74;58.28;98105.16;5131939;27;20096;-96
2022/04/23 09:02:41;;;;;;;7.40;3.40;;;;;;;18.84;57.29;98111.63;5133231;27;20035;-92
2022/04/23 09:05:07;;;;;;;5.10;2.95;;;;;;;18.96;55.90;98101.81;5131708;27;20057;-92
2022/04/23 09:07:35;;;;;;;7.90;2.90;;;;;;;18.43;57.28;98112.66;5131082;27;20031;-92
2022/04/23 09:10:00;;;;;;;4.47;3.00;;;;;;;17.61;59.89;98106.56;5131624;27;20039;-93
2022/04/23 09:12:28;;;;;;;6.22;3.10;;;;;;;17.62;60.24;98089.44;5131402;27;20534;-92
2022/04/23 09:15:05;;;;;;;6.28;3.13;;;;;;;17.66;61.19;98093.66;5131292;27;20063;-94
2022/04/23 09:23:41;;;;;;;8.27;4.10;;;;;;;18.09;60.15;98087.25;5144881;27;20915;-92
2022/04/23 09:26:14;;;;;;;9.65;4.20;;;;;;;18.48;59.34;98114.09;5112530;28;20079;-93
2022/04/23 09:28:45;;;;;;;6.95;3.55;;;;;;;18.50;57.78;98097.81;5112414;28;20099;-93
2022/04/23 09:31:12;;;;;;;7.72;3.70;;;;;;;18.73;56.45;98112.34;5112185;28;20031;-92
2022/04/23 09:33:43;;;;;;;6.40;3.20;;;;;;;18.96;55.98;98099.13;5111545;28;20044;-93
2022/04/23 09:36:08;;;;;;;5.53;3.42;;;;;;;18.97;57.07;98101.69;5112080;28;20555;-93
2022/04/23 09:38:34;;;;;;;9.10;3.70;;;;;;;18.97;55.04;98090.91;5111911;28;20032;-93
2022/04/23 09:44:07;;;;;;;8.68;3.40;;;;;;;18.78;56.53;98122.81;5144759;27;20128;-93
2022/04/23 09:46:46;;;;;;;7.10;3.75;;;;;;;18.99;55.06;98118.59;5112171;28;20058;-92
2022/04/23 09:49:18;;;;;;;9.85;3.58;;;;;;;19.29;54.94;98120.06;5112651;28;20036;-92
2022/04/23 09:51:59;;;;;;;5.43;2.92;;;;;;;19.25;53.73;98115.84;5112273;28;20169;-93
2022/04/23 09:54:27;;;;;;;7.82;3.80;;;;;;;19.33;54.83;98105.38;5103870;28;20089;-93
2022/04/23 09:56:53;;;;;;;4.72;3.38;;;;;;;19.40;54.20;98108.47;5106404;28;20044;-93
2022/04/23 09:59:20;;;;;;;4.95;3.50;;;;;;;18.61;55.83;98121.31;5111301;28;20065;-93
2022/04/23 10:01:48;;;;;;;5.22;3.15;;;;;;;18.51;56.01;98129.16;5112116;28;20052;-94
2022/04/23 10:04:17;;;;;;;5.90;3.27;;;;;;;18.00;58.35;98121.00;5110802;28;20093;-93
2022/04/23 10:06:45;;;;;;;;;;;;;;;18.42;57.50;98133.34;5108504;28;20032;-94
2022/04/23 10:09:14;;;;;;;7.40;3.00;;;;;;;18.62;56.19;98125.72;5112277;28;19916;-94
2022/04/23 10:11:43;;;;;;;12.05;3.08;;;;;;;18.75;57.44;98126.56;5111986;28;20509;-92
2022/04/23 10:14:11;;;;;;;;;;;;;;;17.93;58.71;98142.06;5112216;28;20119;-93
2022/04/23 10:16:39;;;;;;;8.00;3.25;;;;;;;18.04;57.27;98125.19;5111949;28;19919;-95
2022/04/23 10:19:07;;;;;;;10.95;3.47;;;;;;;17.57;59.02;98126.53;5112336;28;20032;-93
2022/04/23 10:21:41;;;;;;;6.28;3.30;;;;;;;17.66;61.03;98117.88;5111813;28;20040;-94
2022/04/23 10:24:13;;;;;;;9.25;3.65;;;;;;;18.24;60.02;98121.19;5112561;28;20044;-94
2022/04/23 10:26:47;;;;;;;5.57;3.30;;;;;;;18.27;56.20;98127.19;5112106;28;20036;-92
2022/04/23 10:29:20;;;;;;;8.20;3.13;;;;;;;18.78;55.41;98136.28;5112531;28;20444;-92
2022/04/23 10:32:19;;;;;;;9.70;3.30;;;;;;;18.41;56.08;98117.28;5112553;28;20044;-95
2022/04/23 10:34:45;;;;;;;7.15;3.17;;;;;;;18.47;55.23;98122.25;5112300;28;20071;-93
2022/04/23 10:37:16;;;;;;;5.32;3.00;;;;;;;18.47;55.39;98123.13;5112956;28;20439;-94
2022/04/23 10:39:43;;;;;;;4.93;3.15;;;;;;;18.31;55.48;98118.91;5113076;28;20441;-94
2022/04/23 10:42:12;;;;;;;5.82;3.00;;;;;;;18.76;53.88;98127.41;5113574;28;20044;-94
2022/04/23 10:44:38;;;;;;;6.13;3.78;;;;;;;19.01;54.42;98103.19;5107677;28;20126;-94
2022/04/23 10:47:12;;;;;;;6.57;3.10;;;;;;;19.40;52.76;98113.88;5116296;28;20059;-94
2022/04/23 10:49:38;;;;;;;7.10;3.30;;;;;;;18.97;53.55;98115.16;5113453;28;20060;-93
2022/04/23 10:52:04;;;;;;;8.77;3.42;;;;;;;18.72;53.49;98128.63;5112716;28;20036;-93
2022/04/23 10:55:00;;;;;;;4.78;3.30;;;;;;;19.00;53.24;98112.25;5103095;28;20544;-94
2022/04/23 10:57:26;;;;;;;7.47;3.22;;;;;;;18.67;53.84;98119.03;5074846;28;20040;-95
2022/04/23 10:59:53;;;;;;;9.10;4.00;;;;;;;18.63;53.64;98116.69;5074507;28;20051;-92
2022/04/23 11:02:33;;;;;;;6.93;3.88;;;;;;;19.00;53.31;98109.56;5077419;28;20417;-92
2022/04/23 11:14:44;;;;;;;6.18;3.30;;;;;;;19.96;50.67;98094.44;5093655;27;20122;-92
2022/04/23 11:17:10;;;;;;;7.43;3.83;;;;;;;20.08;48.69;98080.00;5118441;27;20049;-93
2022/04/23 11:19:36;;;;;;;6.03;3.58;;;;;;;19.09;52.25;98098.09;5119835;27;20475;-92
2022/04/23 11:22:04;;;;;;;7.22;3.60;;;;;;;19.20;53.26;98091.94;5137830;27;20047;-90
2022/04/23 11:24:30;;;;;;;7.35;3.78;;;;;;;19.40;52.44;98090.47;5119354;27;20488;-95
2022/04/23 11:26:56;;;;;;;9.52;4.13;;;;;;;19.30;51.33;98073.25;5121214;27;20121;-94
2022/04/23 11:29:24;;;;;;;7.72;3.92;;;;;;;19.13;50.86;98085.28;5132684;27;20124;-91
2022/04/23 11:31:52;;;;;;;6.38;3.58;;;;;;;18.96;52.10;98074.88;5123372;27;20045;-92
2022/04/23 11:34:18;;;;;;;6.97;3.58;;;;;;;18.90;53.58;98073.47;5094542;27;20048;-92
2022/04/23 11:36:44;;;;;;;6.25;3.75;;;;;;;19.15;53.81;98079.75;5128575;27;20037;-95
2022/04/23 11:39:11;;;;;;;6.35;3.60;;;;;;;19.10;53.37;98082.78;5094280;27;20423;-92
2022/04/23 11:41:38;;;;;;;7.30;3.97;;;;;;;19.20;53.38;98069.53;5091171;27;20038;-91
2022/04/23 11:44:12;;;;;;;6.40;3.30;;;;;;;19.60;51.15;98085.41;5117916;27;20062;-92
2022/04/23 11:46:43;;;;;;;6.85;3.40;;;;;;;19.85;51.56;98074.53;5142168;27;20062;-94
2022/04/23 11:49:10;;;;;;;9.75;4.55;;;;;;;19.71;50.55;98061.22;5114528;27;20026;-91
2022/04/23 11:51:40;;;;;;;6.80;3.88;;;;;;;19.13;51.15;98054.75;5095911;27;20041;-92
2022/04/23 11:54:06;;;;;;;9.10;3.65;;;;;;;19.20;52.19;98047.94;5117459;27;20035;-94
2022/04/23 11:56:33;;;;;;;8.18;3.58;;;;;;;19.12;51.40;98058.44;5112260;27;20038;-90
2022/04/23 11:59:03;;;;;;;6.38;3.35;;;;;;;19.16;52.01;98063.47;5152292;27;20044;-92
2022/04/23 12:01:29;;;;;;;9.45;3.20;;;;;;;19.38;51.75;98043.88;5144194;27;20089;-92
2022/04/23 12:03:56;;;;;;;5.57;3.15;;;;;;;19.49;51.19;98038.53;5122334;27;20161;-93
2022/04/23 12:06:25;;;;;;;8.00;3.20;;;;;;;19.60;51.11;98044.97;5107412;27;20041;-94
2022/04/23 12:08:51;;;;;;;6.25;3.40;;;;;;;19.36;52.10;98048.53;5122874;27;20079;-95
2022/04/23 12:11:21;;;;;;;12.05;3.65;;;;;;;19.16;51.35;98023.06;5122361;27;20041;-93
2022/04/23 12:13:48;;;;;;;7.25;3.10;;;;;;;19.26;51.55;98034.88;5098561;27;20033;-93
2022/04/23 12:16:14;;;;;;;7.40;3.30;;;;;;;19.47;51.58;98018.94;5081848;27;20046;-90